createdAt,value
2018-11-26T00:02:00.084Z,5.20
2018-11-26T00:04:27.737Z,5.20
2018-11-26T00:06:55.379Z,5.20
2018-11-26T00:09:25.502Z,5.30
2018-11-26T00:11:54.801Z,5.30
2018-11-26T00:14:23.530Z,5.30
2018-11-26T00:16:51.968Z,5.20
2018-11-26T00:19:21.018Z,5.20
2018-11-26T00:21:48.787Z,5.20
2018-11-26T00:24:16.561Z,5.20
2018-11-26T00:26:44.354Z,5.30
2018-11-26T00:29:14.279Z,5.30
2018-11-26T00:31:41.874Z,5.30
2018-11-26T00:34:09.430Z,5.30
2018-11-26T00:36:37.284Z,5.30
2018-11-26T00:39:07.420Z,5.30
2018-11-26T00:41:35.139Z,5.30
2018-11-26T00:44:02.801Z,5.30
2018-11-26T00:46:30.358Z,5.30
2018-11-26T00:48:57.839Z,5.30
2018-11-26T00:51:25.352Z,5.30
2018-11-26T00:53:52.845Z,5.20
2018-11-26T00:56:20.308Z,5.20
2018-11-26T00:58:47.850Z,5.20
2018-11-26T01:01:15.530Z,5.20
2018-11-26T01:03:43.043Z,5.20
2018-11-26T01:06:10.869Z,5.20
2018-11-26T01:08:39.421Z,5.20
2018-11-26T01:11:07.284Z,5.20
2018-11-26T01:13:34.963Z,5.20
2018-11-26T01:16:02.495Z,5.10
2018-11-26T01:18:30.272Z,5.10
2018-11-26T01:20:57.797Z,5.00
2018-11-26T01:23:25.491Z,5.00
2018-11-26T01:25:52.959Z,5.00
2018-11-26T01:28:20.523Z,5.00
2018-11-26T01:30:48.091Z,5.00
2018-11-26T01:33:16.569Z,5.00
2018-11-26T01:35:44.311Z,5.00
2018-11-26T01:38:11.784Z,5.00
2018-11-26T01:40:45.208Z,5.00
2018-11-26T01:43:12.720Z,5.00
2018-11-26T01:45:41.411Z,5.00
2018-11-26T01:48:08.941Z,5.00
2018-11-26T01:50:36.440Z,5.10
2018-11-26T01:53:05.011Z,5.10
2018-11-26T01:55:32.572Z,5.10
2018-11-26T01:58:00.233Z,5.10
2018-11-26T02:00:27.864Z,5.00
2018-11-26T02:02:55.387Z,5.10
2018-11-26T02:05:23.012Z,5.20
2018-11-26T02:07:50.497Z,5.20
2018-11-26T02:10:19.719Z,5.10
2018-11-26T02:12:47.536Z,5.10
2018-11-26T02:15:24.926Z,5.10
2018-11-26T02:17:52.493Z,5.00
2018-11-26T02:20:20.044Z,5.00
2018-11-26T02:22:47.601Z,4.90
2018-11-26T02:25:15.105Z,5.00
2018-11-26T02:27:42.679Z,5.00
2018-11-26T02:30:10.324Z,5.00
2018-11-26T02:32:37.773Z,5.00
2018-11-26T02:35:06.242Z,4.90
2018-11-26T02:37:33.724Z,4.90
2018-11-26T02:40:01.353Z,4.90
2018-11-26T02:42:28.897Z,4.90
2018-11-26T02:44:56.397Z,4.90
2018-11-26T02:47:24.031Z,4.80
2018-11-26T02:49:51.564Z,4.80
2018-11-26T02:52:19.204Z,4.80
2018-11-26T02:54:46.792Z,4.80
2018-11-26T02:57:14.359Z,4.80
2018-11-26T02:59:41.871Z,4.90
2018-11-26T03:02:10.201Z,4.90
2018-11-26T03:04:37.708Z,4.90
2018-11-26T03:07:05.736Z,4.90
2018-11-26T03:09:33.208Z,4.90
2018-11-26T03:12:00.738Z,4.90
2018-11-26T03:14:28.298Z,4.90
2018-11-26T03:16:56.347Z,4.80
2018-11-26T03:19:24.960Z,4.90
2018-11-26T03:21:52.450Z,4.90
2018-11-26T03:24:20.278Z,4.90
2018-11-26T03:26:47.789Z,4.80
2018-11-26T03:29:15.396Z,4.80
2018-11-26T03:31:43.076Z,4.80
2018-11-26T03:34:10.561Z,4.80
2018-11-26T03:36:38.066Z,4.70
2018-11-26T03:39:06.768Z,4.70
2018-11-26T03:41:34.308Z,4.70
2018-11-26T03:44:02.047Z,4.70
2018-11-26T03:46:29.612Z,4.70
2018-11-26T03:48:57.287Z,4.60
2018-11-26T03:51:24.864Z,4.50
2018-11-26T03:53:52.357Z,4.50
2018-11-26T03:56:20.093Z,4.50
2018-11-26T03:58:47.645Z,4.50
2018-11-26T04:01:15.136Z,4.40
2018-11-26T04:03:43.285Z,4.40
2018-11-26T04:06:10.803Z,4.40
2018-11-26T04:08:38.372Z,4.40
2018-11-26T04:11:05.938Z,4.40
2018-11-26T04:13:33.419Z,4.40
2018-11-26T04:18:39.211Z,4.40
2018-11-26T04:21:06.700Z,4.30
2018-11-26T04:23:34.201Z,4.30
2018-11-26T04:26:01.731Z,4.30
2018-11-26T04:28:29.308Z,4.30
2018-11-26T04:30:57.872Z,4.30
2018-11-26T04:33:25.351Z,4.30
2018-11-26T04:35:52.856Z,4.20
2018-11-26T04:38:20.375Z,4.20
2018-11-26T04:40:48.534Z,4.10
2018-11-26T04:43:16.000Z,4.10
2018-11-26T04:45:43.514Z,4.00
2018-11-26T04:48:10.979Z,4.00
2018-11-26T04:50:38.604Z,3.90
2018-11-26T04:53:06.218Z,3.90
2018-11-26T04:55:33.743Z,3.90
2018-11-26T04:58:01.363Z,3.90
2018-11-26T05:00:29.082Z,3.90
2018-11-26T05:02:57.344Z,3.90
2018-11-26T05:05:24.950Z,3.80
2018-11-26T05:07:52.474Z,3.80
2018-11-26T05:10:20.115Z,3.70
2018-11-26T05:12:47.741Z,3.70
2018-11-26T05:15:15.448Z,3.60
2018-11-26T05:17:43.000Z,3.60
2018-11-26T05:20:11.625Z,3.70
2018-11-26T05:22:39.238Z,3.70
2018-11-26T05:25:08.439Z,3.70
2018-11-26T05:27:36.376Z,3.80
2018-11-26T05:30:07.135Z,3.70
2018-11-26T05:32:34.743Z,3.70
2018-11-26T05:35:02.287Z,3.70
2018-11-26T05:37:29.890Z,3.60
2018-11-26T05:39:57.511Z,3.50
2018-11-26T05:42:28.801Z,3.30
2018-11-26T05:44:52.669Z,3.30
2018-11-26T05:47:20.188Z,3.30
2018-11-26T05:49:47.753Z,3.20
2018-11-26T05:52:15.511Z,3.20
2018-11-26T05:54:43.082Z,3.20
2018-11-26T05:57:11.410Z,3.10
2018-11-26T05:59:39.995Z,3.20
2018-11-26T06:02:08.201Z,3.20
2018-11-26T06:04:35.911Z,3.10
2018-11-26T06:07:04.031Z,3.10
2018-11-26T06:09:31.612Z,3.10
2018-11-26T06:11:59.178Z,3.10
2018-11-26T06:14:26.768Z,3.10
2018-11-26T06:16:54.272Z,3.10
2018-11-26T06:19:21.874Z,3.10
2018-11-26T06:21:50.638Z,3.10
2018-11-26T06:24:18.312Z,3.10
2018-11-26T06:26:45.890Z,3.10
2018-11-26T06:29:13.491Z,3.00
2018-11-26T06:31:41.213Z,3.00
2018-11-26T06:34:08.851Z,3.00
2018-11-26T06:36:36.539Z,3.00
2018-11-26T06:39:07.045Z,3.00
2018-11-26T06:41:34.606Z,2.80
2018-11-26T06:44:02.164Z,2.80
2018-11-26T06:46:29.747Z,2.80
2018-11-26T06:48:57.258Z,2.80
2018-11-26T06:51:24.967Z,2.80
2018-11-26T06:53:52.635Z,2.80
2018-11-26T06:56:20.226Z,2.80
2018-11-26T06:58:47.905Z,2.70
2018-11-26T07:01:15.497Z,2.60
2018-11-26T07:03:45.477Z,2.50
2018-11-26T07:06:20.678Z,2.50
2018-11-26T07:08:48.228Z,2.40
2018-11-26T07:11:15.750Z,2.40
2018-11-26T07:13:43.306Z,2.30
2018-11-26T07:16:10.843Z,2.30
2018-11-26T07:18:38.360Z,2.20
2018-11-26T07:21:06.332Z,2.20
2018-11-26T07:23:33.864Z,2.10
2018-11-26T07:26:01.909Z,2.10
2018-11-26T07:28:29.483Z,2.10
2018-11-26T07:30:57.015Z,2.10
2018-11-26T07:33:24.504Z,2.10
2018-11-26T07:35:52.058Z,2.10
2018-11-26T07:38:19.660Z,2.00
2018-11-26T07:40:47.678Z,2.10
2018-11-26T07:43:15.286Z,2.10
2018-11-26T07:45:42.848Z,2.20
2018-11-26T07:48:11.364Z,2.20
2018-11-26T07:50:38.885Z,2.30
2018-11-26T07:53:08.386Z,2.40
2018-11-26T07:55:36.302Z,2.40
2018-11-26T07:58:04.125Z,2.40
2018-11-26T08:00:31.905Z,2.40
2018-11-26T08:02:59.652Z,2.40
2018-11-26T08:05:27.146Z,2.50
2018-11-26T08:07:54.704Z,2.50
2018-11-26T08:10:23.050Z,2.50
2018-11-26T08:12:51.739Z,2.60
2018-11-26T08:15:22.442Z,2.60
2018-11-26T08:17:49.244Z,2.70
2018-11-26T08:20:16.973Z,2.70
2018-11-26T08:22:44.598Z,2.80
2018-11-26T08:25:13.285Z,2.90
2018-11-26T08:27:41.585Z,2.90
2018-11-26T08:30:26.208Z,3.00
2018-11-26T08:32:57.589Z,3.00
2018-11-26T08:35:25.852Z,3.10
2018-11-26T08:39:00.722Z,3.10
2018-11-26T08:41:35.340Z,3.10
2018-11-26T08:44:09.625Z,3.00
2018-11-26T08:46:42.617Z,2.90
2018-11-26T08:49:12.818Z,2.90
2018-11-26T08:51:40.597Z,3.00
2018-11-26T08:54:08.199Z,3.00
2018-11-26T08:56:35.807Z,2.90
2018-11-26T08:59:03.536Z,3.00
2018-11-26T09:01:32.942Z,3.00
2018-11-26T09:04:03.831Z,3.00
2018-11-26T09:06:31.728Z,3.00
2018-11-26T09:08:59.388Z,3.00
2018-11-26T09:11:27.624Z,3.00
2018-11-26T09:13:55.344Z,3.00
2018-11-26T09:16:22.951Z,3.20
2018-11-26T09:18:50.856Z,3.10
2018-11-26T09:21:18.336Z,3.20
2018-11-26T09:23:46.851Z,3.10
2018-11-26T09:26:14.342Z,3.00
2018-11-26T09:28:41.890Z,3.00
2018-11-26T09:31:09.472Z,3.00
2018-11-26T09:33:37.118Z,3.10
2018-11-26T09:36:04.670Z,3.10
2018-11-26T09:38:32.219Z,3.20
2018-11-26T09:40:59.945Z,3.20
2018-11-26T09:43:27.530Z,3.30
2018-11-26T09:45:55.071Z,3.30
2018-11-26T09:48:22.695Z,3.40
2018-11-26T09:50:50.256Z,3.30
2018-11-26T09:53:17.725Z,3.30
2018-11-26T09:55:45.205Z,3.40
2018-11-26T09:58:12.775Z,3.40
2018-11-26T10:00:40.304Z,3.40
2018-11-26T10:03:07.946Z,3.40
2018-11-26T10:05:35.643Z,3.50
2018-11-26T10:08:04.313Z,3.50
2018-11-26T10:10:31.825Z,3.50
2018-11-26T10:12:59.330Z,3.60
2018-11-26T10:15:27.258Z,3.60
2018-11-26T10:17:54.838Z,3.60
2018-11-26T10:20:22.338Z,3.70
2018-11-26T10:22:50.935Z,3.80
2018-11-26T10:25:20.444Z,3.80
2018-11-26T10:27:48.023Z,3.80
2018-11-26T10:30:18.361Z,3.80
2018-11-26T10:32:46.532Z,3.70
2018-11-26T10:35:15.874Z,3.70
2018-11-26T10:37:43.525Z,3.80
2018-11-26T10:40:13.315Z,3.80
2018-11-26T10:42:41.799Z,3.90
2018-11-26T10:45:10.796Z,3.90
2018-11-26T10:47:38.327Z,4.00
2018-11-26T10:50:08.200Z,4.00
2018-11-26T10:52:36.439Z,4.10
2018-11-26T10:55:10.380Z,4.20
2018-11-26T10:57:38.277Z,4.20
2018-11-26T11:00:08.287Z,4.30
2018-11-26T11:02:42.095Z,4.30
2018-11-26T11:05:09.826Z,4.30
2018-11-26T11:07:37.629Z,4.20
2018-11-26T11:10:08.999Z,4.30
2018-11-26T11:12:36.504Z,4.30
2018-11-26T11:15:05.652Z,4.30
2018-11-26T11:17:33.337Z,4.30
2018-11-26T11:20:00.948Z,4.30
2018-11-26T11:22:28.304Z,4.30
2018-11-26T11:24:55.915Z,4.40
2018-11-26T11:27:23.479Z,4.40
2018-11-26T11:29:51.070Z,4.40
2018-11-26T11:32:18.559Z,4.30
2018-11-26T11:34:46.634Z,4.30
2018-11-26T11:37:14.326Z,4.40
2018-11-26T11:39:41.839Z,4.30
2018-11-26T11:42:09.648Z,4.40
2018-11-26T11:44:38.204Z,4.40
2018-11-26T11:47:05.790Z,4.60
2018-11-26T11:49:33.657Z,4.60
2018-11-26T11:52:01.171Z,4.70
2018-11-26T11:54:28.683Z,4.60
2018-11-26T11:56:56.187Z,4.60
2018-11-26T11:59:23.685Z,4.70
2018-11-26T12:01:51.258Z,4.60
2018-11-26T12:04:18.868Z,4.60
2018-11-26T12:06:46.326Z,4.70
2018-11-26T12:09:13.824Z,4.70
2018-11-26T12:11:41.329Z,4.70
2018-11-26T12:14:08.947Z,4.70
2018-11-26T12:16:36.340Z,4.70
2018-11-26T12:19:05.600Z,4.70
2018-11-26T12:21:33.363Z,4.80
2018-11-26T12:24:00.858Z,4.80
2018-11-26T12:26:29.525Z,4.90
2018-11-26T12:28:57.450Z,4.80
2018-11-26T12:31:25.080Z,4.80
2018-11-26T12:33:52.716Z,4.70
2018-11-26T12:36:20.234Z,4.80
2018-11-26T12:38:47.800Z,4.80
2018-11-26T12:41:15.396Z,4.70
2018-11-26T12:43:43.143Z,4.70
2018-11-26T12:46:10.699Z,4.80
2018-11-26T12:48:38.287Z,4.80
2018-11-26T12:51:05.794Z,4.80
2018-11-26T12:53:33.412Z,4.90
2018-11-26T12:56:01.017Z,5.00
2018-11-26T12:58:28.603Z,5.00
2018-11-26T13:00:56.119Z,5.00
2018-11-26T13:03:23.790Z,5.10
2018-11-26T13:05:51.336Z,5.00
2018-11-26T13:08:18.812Z,4.90
2018-11-26T13:10:46.436Z,4.90
2018-11-26T13:13:13.955Z,5.00
2018-11-26T13:15:41.466Z,5.10
2018-11-26T13:18:08.986Z,5.00
2018-11-26T13:20:36.504Z,5.00
2018-11-26T13:23:05.297Z,5.00
2018-11-26T13:25:34.171Z,5.10
2018-11-26T13:28:02.660Z,5.00
2018-11-26T13:30:34.207Z,5.00
2018-11-26T13:33:03.162Z,5.10
2018-11-26T13:35:30.662Z,5.10
2018-11-26T13:37:58.425Z,5.10
2018-11-26T13:40:26.074Z,5.20
2018-11-26T13:42:53.653Z,5.10
2018-11-26T13:45:26.498Z,5.10
2018-11-26T13:47:54.071Z,5.10
2018-11-26T13:50:24.664Z,5.00
2018-11-26T13:52:52.235Z,5.00
2018-11-26T13:55:19.681Z,5.10
2018-11-26T13:57:47.093Z,5.10
2018-11-26T14:00:15.522Z,5.10
2018-11-26T14:02:43.070Z,5.10
2018-11-26T14:05:13.537Z,5.10
2018-11-26T14:07:41.085Z,5.10
2018-11-26T14:10:10.079Z,5.10
2018-11-26T14:12:37.609Z,5.20
2018-11-26T14:15:08.575Z,5.20
2018-11-26T14:17:36.176Z,5.10
2018-11-26T14:20:05.286Z,5.10
2018-11-26T14:22:32.834Z,5.10
2018-11-26T14:25:00.364Z,5.10
2018-11-26T14:27:27.842Z,5.00
2018-11-26T14:29:55.394Z,5.10
2018-11-26T14:32:23.125Z,4.90
2018-11-26T14:34:50.735Z,4.90
2018-11-26T14:37:18.196Z,4.90
2018-11-26T14:39:45.850Z,4.90
2018-11-26T14:42:13.534Z,4.90
2018-11-26T14:44:41.101Z,4.80
2018-11-26T14:47:08.601Z,4.80
2018-11-26T14:49:36.086Z,4.90
2018-11-26T14:52:03.669Z,4.90
2018-11-26T14:54:31.304Z,4.90
2018-11-26T14:56:58.950Z,5.00
2018-11-26T14:59:27.426Z,5.00
2018-11-26T15:01:54.936Z,5.00
2018-11-26T15:04:22.572Z,5.00
2018-11-26T15:06:50.188Z,5.00
2018-11-26T15:09:17.694Z,4.90
2018-11-26T15:11:45.187Z,4.90
2018-11-26T15:14:12.800Z,4.90
2018-11-26T15:16:40.348Z,4.90
2018-11-26T15:19:07.948Z,5.00
2018-11-26T15:21:35.453Z,4.90
2018-11-26T15:24:03.525Z,4.80
2018-11-26T15:26:31.116Z,4.90
2018-11-26T15:28:58.656Z,4.90
2018-11-26T15:31:26.193Z,4.90
2018-11-26T15:33:53.659Z,4.90
2018-11-26T15:36:21.124Z,4.90
2018-11-26T15:38:48.586Z,5.00
2018-11-26T15:41:16.095Z,5.00
2018-11-26T15:43:43.575Z,5.00
2018-11-26T15:46:11.046Z,5.00
2018-11-26T15:48:38.993Z,5.00
2018-11-26T15:51:06.477Z,5.00
2018-11-26T15:53:33.983Z,5.00
2018-11-26T15:56:01.524Z,4.90
2018-11-26T15:58:29.151Z,4.90
2018-11-26T16:00:56.614Z,4.90
2018-11-26T16:03:24.115Z,4.90
2018-11-26T16:05:51.707Z,4.90
2018-11-26T16:08:19.207Z,5.00
2018-11-26T16:10:46.703Z,5.00
2018-11-26T16:13:15.353Z,4.90
2018-11-26T16:15:43.715Z,4.90
2018-11-26T16:18:14.069Z,4.90
2018-11-26T16:20:41.678Z,4.90
2018-11-26T16:23:09.913Z,5.00
2018-11-26T16:25:39.601Z,4.90
2018-11-26T16:28:07.189Z,4.90
2018-11-26T16:30:34.690Z,5.00
2018-11-26T16:33:02.296Z,4.90
2018-11-26T16:35:31.250Z,5.00
2018-11-26T16:37:58.999Z,5.00
2018-11-26T16:40:26.488Z,5.00
2018-11-26T16:42:54.057Z,5.00
2018-11-26T16:45:22.841Z,5.10
2018-11-26T16:47:51.308Z,5.10
2018-11-26T16:50:19.898Z,5.00
2018-11-26T16:52:47.484Z,5.00
2018-11-26T16:55:15.764Z,5.00
2018-11-26T16:57:43.249Z,5.10
2018-11-26T17:00:15.897Z,5.00
2018-11-26T17:02:43.547Z,5.10
2018-11-26T17:05:13.668Z,5.10
2018-11-26T17:07:41.956Z,5.10
2018-11-26T17:10:10.057Z,5.10
2018-11-26T17:12:37.781Z,5.00
2018-11-26T17:15:07.598Z,5.00
2018-11-26T17:17:35.119Z,5.00
2018-11-26T17:20:02.679Z,4.90
2018-11-26T17:22:30.354Z,4.90
2018-11-26T17:24:57.866Z,5.00
2018-11-26T17:27:25.419Z,4.90
2018-11-26T17:29:53.140Z,4.90
2018-11-26T17:32:20.574Z,4.90
2018-11-26T17:34:48.020Z,4.90
2018-11-26T17:37:15.628Z,4.90
2018-11-26T17:39:43.205Z,4.90
2018-11-26T17:42:10.648Z,4.90
2018-11-26T17:44:38.940Z,4.90
2018-11-26T17:47:06.507Z,4.80
2018-11-26T17:49:34.013Z,4.80
2018-11-26T17:52:01.520Z,4.80
2018-11-26T17:54:30.111Z,4.70
2018-11-26T17:56:57.656Z,4.70
2018-11-26T17:59:25.147Z,4.70
2018-11-26T18:01:52.639Z,4.70
2018-11-26T18:04:21.268Z,4.70
2018-11-26T18:06:48.745Z,4.70
2018-11-26T18:09:16.276Z,4.60
2018-11-26T18:11:43.820Z,4.60
2018-11-26T18:14:11.303Z,4.60
2018-11-26T18:16:38.786Z,4.60
2018-11-26T18:19:06.346Z,4.60
2018-11-26T18:21:33.947Z,4.60
2018-11-26T18:24:01.493Z,4.70
2018-11-26T18:26:30.120Z,4.60
2018-11-26T18:28:57.624Z,4.60
2018-11-26T18:31:25.156Z,4.60
2018-11-26T18:33:52.745Z,4.60
2018-11-26T18:36:20.280Z,4.60
2018-11-26T18:38:48.543Z,4.70
2018-11-26T18:41:17.040Z,4.70
2018-11-26T18:43:45.140Z,4.80
2018-11-26T18:46:13.706Z,4.80
2018-11-26T18:48:43.059Z,4.80
2018-11-26T18:51:12.719Z,4.80
2018-11-26T18:53:40.292Z,4.80
2018-11-26T18:56:08.456Z,4.80
2018-11-26T18:58:37.034Z,4.80
2018-11-26T19:01:06.793Z,4.80
2018-11-26T19:03:35.068Z,4.80
2018-11-26T19:06:02.884Z,4.80
2018-11-26T19:08:30.409Z,4.90
2018-11-26T19:11:09.060Z,4.80
2018-11-26T19:13:52.627Z,4.80
2018-11-26T19:16:22.233Z,4.80
2018-11-26T19:18:49.874Z,4.90
2018-11-26T19:21:20.907Z,4.90
2018-11-26T19:23:48.464Z,4.80
2018-11-26T19:26:15.927Z,4.90
2018-11-26T19:28:43.740Z,4.80
2018-11-26T19:31:11.362Z,4.80
2018-11-26T19:33:38.918Z,4.70
2018-11-26T19:36:06.795Z,4.70
2018-11-26T19:38:34.284Z,4.70
2018-11-26T19:41:01.806Z,4.70
2018-11-26T19:43:29.298Z,4.80
2018-11-26T19:45:56.915Z,4.80
2018-11-26T19:48:24.450Z,4.80
2018-11-26T19:50:52.210Z,4.80
2018-11-26T19:53:19.785Z,4.80
2018-11-26T19:55:47.299Z,4.80
2018-11-26T19:58:14.759Z,4.70
2018-11-26T20:00:42.273Z,4.70
2018-11-26T20:03:20.347Z,4.70
2018-11-26T20:05:52.076Z,4.70
2018-11-26T20:08:19.621Z,4.60
2018-11-26T20:10:47.185Z,4.70
2018-11-26T20:13:14.693Z,4.60
2018-11-26T20:15:42.214Z,4.60
2018-11-26T20:18:09.749Z,4.60
2018-11-26T20:20:37.288Z,4.60
2018-11-26T20:23:05.551Z,4.60
2018-11-26T20:25:33.035Z,4.50
2018-11-26T20:28:00.558Z,4.50
2018-11-26T20:30:28.045Z,4.60
2018-11-26T20:32:55.537Z,4.60
2018-11-26T20:35:23.434Z,4.60
2018-11-26T20:37:51.083Z,4.60
2018-11-26T20:40:18.604Z,4.60
2018-11-26T20:42:51.493Z,4.60
2018-11-26T20:45:19.105Z,4.50
2018-11-26T20:47:47.638Z,4.40
2018-11-26T20:50:24.281Z,4.40
2018-11-26T20:52:51.846Z,4.40
2018-11-26T20:55:20.452Z,4.40
2018-11-26T20:57:49.161Z,4.40
2018-11-26T21:00:21.018Z,4.40
2018-11-26T21:02:50.220Z,4.40
2018-11-26T21:05:17.810Z,4.40
2018-11-26T21:07:45.352Z,4.50
2018-11-26T21:10:14.100Z,4.40
2018-11-26T21:12:41.673Z,4.40
2018-11-26T21:15:13.339Z,4.30
2018-11-26T21:17:41.506Z,4.30
2018-11-26T21:20:17.906Z,4.20
2018-11-26T21:22:45.508Z,4.20
2018-11-26T21:25:14.535Z,4.10
2018-11-26T21:27:42.263Z,4.10
2018-11-26T21:30:14.980Z,4.00
2018-11-26T21:32:42.629Z,3.90
2018-11-26T21:35:11.461Z,3.80
2018-11-26T21:37:40.115Z,3.80
2018-11-26T21:40:09.181Z,3.80
2018-11-26T21:42:36.802Z,3.70
2018-11-26T21:45:08.137Z,3.80
2018-11-26T21:47:35.775Z,3.70
2018-11-26T21:50:03.543Z,3.70
2018-11-26T21:52:31.125Z,3.60
2018-11-26T21:54:58.742Z,3.50
2018-11-26T21:57:26.581Z,3.50
2018-11-26T21:59:54.245Z,3.50
2018-11-26T22:02:21.785Z,3.40
2018-11-26T22:04:49.428Z,3.40
2018-11-26T22:07:17.054Z,3.40
2018-11-26T22:09:59.999Z,3.30
2018-11-26T22:12:27.675Z,3.30
2018-11-26T22:14:55.301Z,3.20
2018-11-26T22:17:22.975Z,3.10
2018-11-26T22:19:50.628Z,3.10
2018-11-26T22:22:18.355Z,3.10
2018-11-26T22:24:45.948Z,3.00
2018-11-26T22:27:13.532Z,2.90
2018-11-26T22:29:41.133Z,2.90
2018-11-26T22:32:08.837Z,2.90
2018-11-26T22:34:36.548Z,2.90
2018-11-26T22:37:04.247Z,2.90
2018-11-26T22:39:31.926Z,2.90
2018-11-26T22:41:59.664Z,2.90
2018-11-26T22:44:27.384Z,2.80
2018-11-26T22:46:54.966Z,2.70
2018-11-26T22:49:22.696Z,2.70
2018-11-26T22:51:51.671Z,2.70
2018-11-26T22:54:19.115Z,2.70
2018-11-26T22:56:46.797Z,2.70
2018-11-26T22:59:14.468Z,2.70
2018-11-26T23:01:42.071Z,2.70
2018-11-26T23:04:09.706Z,2.70
2018-11-26T23:06:37.325Z,2.60
2018-11-26T23:09:07.447Z,2.60
2018-11-26T23:11:35.132Z,2.60
2018-11-26T23:14:02.737Z,2.50
2018-11-26T23:16:31.277Z,2.40
2018-11-26T23:18:58.829Z,2.50
2018-11-26T23:21:26.470Z,2.40
2018-11-26T23:23:53.944Z,2.40
2018-11-26T23:26:21.553Z,2.40
2018-11-26T23:28:49.200Z,2.30
2018-11-26T23:31:18.441Z,2.30
2018-11-26T23:33:46.101Z,2.20
2018-11-26T23:36:13.691Z,2.20
2018-11-26T23:38:41.321Z,2.20
2018-11-26T23:41:08.844Z,2.20
2018-11-26T23:43:37.186Z,2.10
2018-11-26T23:46:04.765Z,2.10
2018-11-26T23:48:32.296Z,2.00
2018-11-26T23:50:59.907Z,2.00
2018-11-26T23:53:27.413Z,2.00
2018-11-26T23:55:54.986Z,1.90
2018-11-26T23:58:22.576Z,1.80
